KCNU

Details ICAO KCNU
Name CHANUTE MARTIN JOHNSON
Region United States
Timezone America/Chicago (UTC-6.0)
Plans Departing 2
Arriving 1
Stats Elevation 1,002 ft / 305 m (AMSL)
Location 37.668413° -95.485223°
Runways 2
Magnetic Variation 2.354° E
Sunrise 2017-12-15 13:31:24 UTC / 2017-12-15 07:31:24 Local
Sunset 2017-12-15 23:05:49 UTC / 2017-12-15 17:05:49 Local
Advertisement - Login to hide

Runways

ID Width Length Bearing (true) Bearing (mag) Surface Threshold Offset Overrun Length
08 135 ft / 41 m 2,166 ft / 660 m 90.00° 87.65° Grass 0 ft / 0 m 0 ft / 0 m
18 75 ft / 23 m 4,263 ft / 1,300 m 186.60° 184.25° Asphalt 0 ft / 0 m 0 ft / 0 m
26 135 ft / 41 m 2,166 ft / 660 m 270.00° 267.65° Grass 0 ft / 0 m 0 ft / 0 m
36 75 ft / 23 m 4,263 ft / 1,300 m 6.60° 4.25° Asphalt 270 ft / 82 m 0 ft / 0 m

Map

Weather


0- 5 10 15 20 25 30 35+ Temperature / ° C

Clouds and Precipitation
Forecast for 2017-12-16 06:00 UTC. Updated 44 minutes ago

Ground ~20,000 ft ~40,000 ft Winds

METAR

KCNU 160152Z AUTO 18007KT 10SM CLR 02/M05 A3006 RMK AO2 SLP185 T00171050

TAF

KCNU 152323Z 1600/1624 21008KT P6SM SKC FM160400 20011KT P6SM SKC FM161400 19015G23KT P6SM SKC

Frequencies

Recorded 127.07 MHz ASOS
Unicom 122.70 MHz CTAF/UNICOM
Warning: Do not use this data for real-world aviation or navigation. No guarantee of current accuracy is given.